createdAt,value
2022-09-23T00:03:41.189Z,0
2022-09-23T00:08:41.425Z,0
2022-09-23T00:13:40.513Z,0
2022-09-23T00:18:40.683Z,0
2022-09-23T00:23:40.881Z,0
2022-09-23T00:28:40.894Z,0
2022-09-23T00:33:41.089Z,0
2022-09-23T00:38:41.140Z,0
2022-09-23T00:43:41.237Z,0
2022-09-23T00:48:41.326Z,0
2022-09-23T00:53:40.492Z,0
2022-09-23T00:58:40.567Z,0
2022-09-23T01:03:40.848Z,0
2022-09-23T01:08:41.113Z,0
2022-09-23T01:13:41.254Z,0
2022-09-23T01:18:41.443Z,0
2022-09-23T01:23:40.627Z,0
2022-09-23T01:28:41.035Z,0
2022-09-23T01:33:41.177Z,0
2022-09-23T01:38:41.373Z,0
2022-09-23T01:43:40.610Z,0
2022-09-23T01:48:40.766Z,0
2022-09-23T01:53:41.217Z,0
2022-09-23T01:58:41.224Z,0
2022-09-23T02:03:41.269Z,0
2022-09-23T02:08:41.573Z,0
2022-09-23T02:13:40.709Z,0
2022-09-23T02:18:40.813Z,0
2022-09-23T02:23:41.223Z,0
2022-09-23T02:28:41.524Z,0
2022-09-23T02:33:40.738Z,0
2022-09-23T02:38:40.880Z,0
2022-09-23T02:43:41.397Z,0
2022-09-23T02:48:40.636Z,0
2022-09-23T02:53:40.737Z,0
2022-09-23T02:58:40.983Z,0
2022-09-23T03:03:40.636Z,0
2022-09-23T03:08:41.257Z,0
2022-09-23T03:13:41.235Z,0
2022-09-23T03:18:40.639Z,0
2022-09-23T03:23:41.171Z,0.2
2022-09-23T03:28:41.473Z,0.2
2022-09-23T03:33:40.684Z,0.4
2022-09-23T03:38:41.024Z,0.4
2022-09-23T03:43:40.819Z,0.4
2022-09-23T03:48:41.382Z,0.4
2022-09-23T03:53:40.572Z,0.4
2022-09-23T03:58:40.600Z,0.4
2022-09-23T04:03:40.779Z,0.4
2022-09-23T04:08:40.647Z,0.4
2022-09-23T04:13:41.140Z,0.4
2022-09-23T04:18:41.440Z,0.4
2022-09-23T04:23:40.847Z,0.4
2022-09-23T04:28:41.143Z,0.4
2022-09-23T04:33:41.454Z,0.4
2022-09-23T04:38:40.876Z,0.4
2022-09-23T04:43:40.732Z,0.4
2022-09-23T04:48:40.914Z,0.4
2022-09-23T04:53:41.175Z,0.4
2022-09-23T04:58:41.427Z,0.4
2022-09-23T05:03:40.715Z,0.4
2022-09-23T05:08:41.074Z,0.4
2022-09-23T05:13:41.292Z,0.4
2022-09-23T05:18:41.349Z,0.4
2022-09-23T05:23:40.750Z,0.4
2022-09-23T05:28:41.413Z,0.4
2022-09-23T05:33:41.558Z,0.4
2022-09-23T05:38:40.745Z,0.4
2022-09-23T05:43:41.358Z,0.4
2022-09-23T05:48:41.417Z,0.4
2022-09-23T05:53:41.466Z,0.4
2022-09-23T05:58:41.530Z,0.4
2022-09-23T06:03:40.693Z,0.5
2022-09-23T06:08:40.826Z,0.5
2022-09-23T06:13:40.926Z,0.9
2022-09-23T06:18:40.966Z,0.9
2022-09-23T06:23:41.889Z,0.8
2022-09-23T06:28:41.356Z,0.8
2022-09-23T06:33:41.577Z,0.7
2022-09-23T06:38:41.009Z,0.7
2022-09-23T06:43:41.350Z,0.6
2022-09-23T06:48:45.922Z,0.6
2022-09-23T06:53:41.641Z,0.5
2022-09-23T06:58:40.674Z,0.5
2022-09-23T07:03:40.860Z,0.5
2022-09-23T07:08:41.027Z,0.5
2022-09-23T07:13:41.200Z,0.4
2022-09-23T07:18:41.592Z,0.4
2022-09-23T07:23:41.398Z,0.4
2022-09-23T07:28:41.753Z,0.4
2022-09-23T07:33:41.139Z,0.7
2022-09-23T07:38:45.127Z,0.7
2022-09-23T07:43:41.261Z,0.6
2022-09-23T07:48:41.401Z,0.6
2022-09-23T07:53:40.764Z,0.9
2022-09-23T07:58:41.031Z,0.9
2022-09-23T08:03:41.177Z,0.5
2022-09-23T08:08:41.577Z,0.5
2022-09-23T08:13:40.966Z,0.4
2022-09-23T08:18:41.139Z,0.4
2022-09-23T08:23:41.399Z,0.5
2022-09-23T08:28:41.515Z,0.5
2022-09-23T08:33:40.731Z,1.3
2022-09-23T08:38:41.457Z,1.3
2022-09-23T08:43:40.800Z,1
2022-09-23T08:48:40.903Z,1
2022-09-23T08:53:41.159Z,0.9
2022-09-23T08:58:40.995Z,0.9
2022-09-23T09:03:41.930Z,1.1
2022-09-23T09:08:41.934Z,1.1
2022-09-23T09:13:40.723Z,0.9
2022-09-23T09:18:40.861Z,0.9
2022-09-23T09:23:41.837Z,0.9
2022-09-23T09:28:40.982Z,0.9
2022-09-23T09:33:41.457Z,0.9
2022-09-23T09:38:40.846Z,0.9
2022-09-23T09:43:44.076Z,0.8
2022-09-23T09:48:41.523Z,0.8
2022-09-23T09:53:41.844Z,0.9
2022-09-23T09:58:41.182Z,0.9
2022-09-23T10:03:41.492Z,0.4
2022-09-23T10:08:41.668Z,0.4
2022-09-23T10:13:41.832Z,0.9
2022-09-23T10:18:40.844Z,0.9
2022-09-23T10:23:41.174Z,0.8
2022-09-23T10:28:41.218Z,0.8
2022-09-23T10:33:41.429Z,0.9
2022-09-23T10:38:41.577Z,0.9
2022-09-23T10:43:40.767Z,1.6
2022-09-23T10:48:41.127Z,1.6
2022-09-23T10:53:41.232Z,1.3
2022-09-23T10:58:41.434Z,1.3
2022-09-23T11:03:41.729Z,1.3
2022-09-23T11:08:41.090Z,1.3
2022-09-23T11:13:41.436Z,0.9
2022-09-23T11:18:41.502Z,0.9
2022-09-23T11:23:42.003Z,1.2
2022-09-23T11:28:41.180Z,1.2
2022-09-23T11:33:41.517Z,1
2022-09-23T11:38:41.755Z,1
2022-09-23T11:43:40.862Z,1.2
2022-09-23T11:48:40.991Z,1.2
2022-09-23T11:53:41.275Z,0.9
2022-09-23T11:58:42.678Z,0.9
2022-09-23T12:03:44.130Z,0.9
2022-09-23T12:08:41.597Z,0.9
2022-09-23T12:13:41.543Z,1.8
2022-09-23T12:18:41.789Z,1.8
2022-09-23T12:23:40.893Z,1.3
2022-09-23T12:28:41.121Z,1.3
2022-09-23T12:33:41.392Z,1.3
2022-09-23T12:38:41.479Z,1.3
2022-09-23T12:43:41.553Z,1.3
2022-09-23T12:48:41.845Z,1.3
2022-09-23T12:53:40.848Z,1.8
2022-09-23T12:58:41.490Z,1.8
2022-09-23T13:03:41.585Z,0.9
2022-09-23T13:08:41.858Z,0.9
2022-09-23T13:13:41.135Z,0.9
2022-09-23T13:18:41.242Z,0.9
2022-09-23T13:23:41.260Z,0.8
2022-09-23T13:28:41.472Z,0.8
2022-09-23T13:33:41.661Z,0.4
2022-09-23T13:38:41.736Z,0.4
2022-09-23T13:43:41.666Z,0.4
2022-09-23T13:48:41.876Z,0.4
2022-09-23T13:53:40.935Z,1
2022-09-23T13:58:40.966Z,1
2022-09-23T14:03:41.060Z,0.9
2022-09-23T14:08:41.383Z,0.9
2022-09-23T14:13:41.552Z,0.8
2022-09-23T14:18:41.779Z,0.8
2022-09-23T14:23:40.973Z,0.9
2022-09-23T14:28:41.087Z,0.9
2022-09-23T14:33:41.240Z,0.8
2022-09-23T14:38:41.197Z,0.8
2022-09-23T14:43:41.366Z,0.9
2022-09-23T14:48:41.762Z,0.9
2022-09-23T14:53:41.303Z,0.8
2022-09-23T14:58:41.864Z,0.8
2022-09-23T15:03:41.506Z,0.8
2022-09-23T15:08:41.092Z,0.8
2022-09-23T15:13:41.476Z,0.4
2022-09-23T15:18:41.761Z,0.4
2022-09-23T15:23:41.221Z,0.2
2022-09-23T15:28:41.470Z,0.2
2022-09-23T15:33:41.833Z,0.4
2022-09-23T15:38:41.075Z,0.4
2022-09-23T15:43:41.325Z,0.4
2022-09-23T15:48:41.108Z,0.4
2022-09-23T15:53:41.337Z,0
2022-09-23T15:58:41.970Z,0
2022-09-23T16:03:41.160Z,0
2022-09-23T16:08:41.410Z,0
2022-09-23T16:13:41.796Z,0
2022-09-23T16:18:41.219Z,0
2022-09-23T16:23:41.406Z,0.1
2022-09-23T16:28:41.661Z,0.1
2022-09-23T16:33:41.799Z,0.4
2022-09-23T16:38:41.864Z,0.4
2022-09-23T16:43:41.320Z,0
2022-09-23T16:48:41.580Z,0
2022-09-23T16:53:41.907Z,0
2022-09-23T16:58:41.162Z,0
2022-09-23T17:03:41.278Z,0
2022-09-23T17:08:41.434Z,0
2022-09-23T17:13:42.023Z,0
2022-09-23T17:18:41.177Z,0
2022-09-23T17:23:41.368Z,0
2022-09-23T17:28:41.476Z,0
2022-09-23T17:33:41.507Z,0
2022-09-23T17:38:41.669Z,0
2022-09-23T17:43:41.987Z,0
2022-09-23T17:48:41.205Z,0
2022-09-23T17:53:41.433Z,0
2022-09-23T17:58:41.483Z,0
2022-09-23T18:03:41.720Z,0
2022-09-23T18:08:41.897Z,0
2022-09-23T18:13:41.150Z,0
2022-09-23T18:18:41.351Z,0
2022-09-23T18:23:41.652Z,0
2022-09-23T18:28:41.766Z,0
2022-09-23T18:33:42.011Z,0
2022-09-23T18:38:41.248Z,0
2022-09-23T18:43:44.033Z,0
2022-09-23T18:48:41.842Z,0
2022-09-23T18:53:41.223Z,0
2022-09-23T18:58:41.368Z,0
2022-09-23T19:03:41.563Z,0
2022-09-23T19:08:41.743Z,0
2022-09-23T19:13:42.003Z,0
2022-09-23T19:18:41.070Z,0
2022-09-23T19:23:41.214Z,0
2022-09-23T19:28:41.441Z,0
2022-09-23T19:33:41.873Z,0
2022-09-23T19:38:42.196Z,0
2022-09-23T19:43:41.408Z,0
2022-09-23T19:48:41.672Z,0
2022-09-23T19:53:41.763Z,0
2022-09-23T19:58:41.810Z,0
2022-09-23T20:03:41.798Z,0
2022-09-23T20:08:42.127Z,0
2022-09-23T20:13:41.663Z,0
2022-09-23T20:18:41.749Z,0
2022-09-23T20:23:41.962Z,0
2022-09-23T20:28:42.115Z,0
2022-09-23T20:33:41.172Z,0
2022-09-23T20:38:41.543Z,0
2022-09-23T20:43:41.372Z,0
2022-09-23T20:48:41.568Z,0
2022-09-23T20:53:41.829Z,0
2022-09-23T20:58:41.922Z,0
2022-09-23T21:03:41.973Z,0
2022-09-23T21:08:41.382Z,0
2022-09-23T21:13:41.588Z,0
2022-09-23T21:18:41.801Z,0
2022-09-23T21:23:42.326Z,0
2022-09-23T21:28:41.565Z,0
2022-09-23T21:33:42.008Z,0
2022-09-23T21:38:41.449Z,0
2022-09-23T21:43:41.920Z,0
2022-09-23T21:48:42.047Z,0
2022-09-23T21:53:41.457Z,0
2022-09-23T21:58:41.700Z,0
2022-09-23T22:03:41.861Z,0
2022-09-23T22:08:42.429Z,0
2022-09-23T22:13:41.477Z,0
2022-09-23T22:18:41.865Z,0
2022-09-23T22:23:41.570Z,0
2022-09-23T22:28:42.130Z,0
2022-09-23T22:33:41.214Z,0
2022-09-23T22:38:41.821Z,0
2022-09-23T22:43:42.002Z,0
2022-09-23T22:48:42.185Z,0
2022-09-23T22:53:41.306Z,0
2022-09-23T22:58:41.471Z,0
2022-09-23T23:03:41.822Z,0
2022-09-23T23:08:41.228Z,0
2022-09-23T23:13:41.367Z,0
2022-09-23T23:18:41.521Z,0
2022-09-23T23:23:41.582Z,0
2022-09-23T23:28:41.628Z,0
2022-09-23T23:33:41.645Z,0
2022-09-23T23:38:41.708Z,0
2022-09-23T23:43:41.810Z,0
2022-09-23T23:48:41.993Z,0
2022-09-23T23:53:41.274Z,0
2022-09-23T23:58:42.006Z,0
